createdAt,value
2019-05-20T00:05:01.595Z,8.80
2019-05-20T00:10:08.490Z,7.27
2019-05-20T00:15:14.611Z,7.70
2019-05-20T00:20:21.101Z,8.40
2019-05-20T00:25:27.549Z,9.03
2019-05-20T00:30:33.715Z,6.97
2019-05-20T00:35:40.036Z,8.50
2019-05-20T00:40:45.321Z,9.50
2019-05-20T00:45:51.603Z,9.40
2019-05-20T00:50:58.387Z,8.60
2019-05-20T00:56:05.048Z,9.90
2019-05-20T01:01:11.310Z,9.17
2019-05-20T01:06:18.833Z,8.27
2019-05-20T01:11:25.293Z,8.93
2019-05-20T01:16:30.962Z,9.33
2019-05-20T01:21:35.900Z,10.00
2019-05-20T01:26:41.160Z,9.27
2019-05-20T01:31:46.424Z,9.73
2019-05-20T01:36:52.057Z,10.67
2019-05-20T01:41:57.731Z,11.37
2019-05-20T01:47:03.308Z,11.97
2019-05-20T01:52:10.159Z,10.33
2019-05-20T01:57:15.433Z,10.27
2019-05-20T02:02:21.289Z,10.20
2019-05-20T02:07:27.657Z,11.33
2019-05-20T02:12:33.925Z,11.27
2019-05-20T02:17:42.270Z,12.30
2019-05-20T02:22:48.552Z,11.07
2019-05-20T02:27:53.930Z,12.53
2019-05-20T02:33:01.823Z,14.10
2019-05-20T02:38:07.920Z,13.40
2019-05-20T02:43:17.728Z,12.90
2019-05-20T02:48:22.996Z,15.23
2019-05-20T02:53:29.432Z,13.10
2019-05-20T02:58:35.446Z,13.60
2019-05-20T03:03:41.364Z,13.40
2019-05-20T03:08:48.314Z,18.53
2019-05-20T03:13:54.203Z,20.13
2019-05-20T03:19:00.330Z,23.40
2019-05-20T03:24:08.137Z,23.10
2019-05-20T03:29:14.365Z,23.83
2019-05-20T03:34:43.570Z,21.57
2019-05-20T03:39:30.663Z,21.87
2019-05-20T03:44:36.833Z,25.63
2019-05-20T03:49:43.329Z,24.53
2019-05-20T03:54:51.715Z,23.67
2019-05-20T03:59:57.503Z,24.50
2019-05-20T04:05:03.619Z,28.23
2019-05-20T04:10:09.976Z,28.27
2019-05-20T04:15:16.988Z,27.90
2019-05-20T04:20:23.539Z,31.47
2019-05-20T04:25:28.786Z,28.20
2019-05-20T04:30:36.492Z,30.63
2019-05-20T04:35:41.582Z,32.13
2019-05-20T04:40:48.585Z,33.23
2019-05-20T04:45:55.216Z,33.17
2019-05-20T04:51:00.780Z,30.67
2019-05-20T04:56:08.924Z,33.53
2019-05-20T05:01:16.400Z,32.03
2019-05-20T05:06:21.480Z,36.17
2019-05-20T05:11:27.816Z,33.70
2019-05-20T05:16:35.655Z,30.73
2019-05-20T05:21:41.451Z,34.43
2019-05-20T05:26:47.927Z,34.87
2019-05-20T05:31:55.634Z,33.23
2019-05-20T05:37:02.076Z,34.17
2019-05-20T05:42:09.863Z,35.83
2019-05-20T05:47:15.916Z,32.43
2019-05-20T05:52:23.707Z,32.53
2019-05-20T05:57:30.113Z,33.50
2019-05-20T06:02:37.444Z,33.90
2019-05-20T06:07:43.882Z,35.70
2019-05-20T06:12:49.372Z,34.27
2019-05-20T06:17:55.270Z,37.10
2019-05-20T06:23:00.215Z,39.00
2019-05-20T06:28:05.901Z,37.43
2019-05-20T06:33:11.614Z,37.13
2019-05-20T06:38:36.172Z,38.10
2019-05-20T06:43:41.892Z,41.33
2019-05-20T06:48:47.011Z,43.97
2019-05-20T06:53:53.160Z,35.53
2019-05-20T06:58:58.842Z,37.73
2019-05-20T07:04:04.130Z,33.83
2019-05-20T07:09:10.706Z,33.87
2019-05-20T07:14:16.747Z,32.90
2019-05-20T07:19:22.608Z,33.17
2019-05-20T07:24:29.727Z,32.33
2019-05-20T07:29:36.159Z,31.47
2019-05-20T07:34:42.697Z,31.63
2019-05-20T07:39:50.959Z,32.07
2019-05-20T07:44:56.781Z,27.50
2019-05-20T07:50:01.931Z,26.37
2019-05-20T07:55:08.780Z,28.40
2019-05-20T08:00:15.254Z,28.77
2019-05-20T08:05:21.394Z,28.37
2019-05-20T08:10:27.087Z,28.03
2019-05-20T08:15:33.085Z,33.90
2019-05-20T08:20:38.442Z,33.20
2019-05-20T08:25:43.423Z,29.57
2019-05-20T08:30:50.358Z,36.63
2019-05-20T08:35:55.651Z,28.87
2019-05-20T08:41:01.483Z,32.63
2019-05-20T08:46:07.909Z,30.10
2019-05-20T08:51:14.576Z,28.33
2019-05-20T08:56:21.797Z,25.23
2019-05-20T09:01:27.508Z,27.67
2019-05-20T09:06:34.352Z,25.50
2019-05-20T09:11:39.553Z,24.77
2019-05-20T09:16:46.618Z,25.47
2019-05-20T09:21:51.928Z,27.13
2019-05-20T09:26:56.917Z,27.93
2019-05-20T09:32:03.194Z,26.60
2019-05-20T09:37:10.764Z,27.07
2019-05-20T09:42:16.631Z,28.03
2019-05-20T09:47:22.309Z,27.27
2019-05-20T09:52:28.168Z,28.40
2019-05-20T09:57:33.501Z,25.47
2019-05-20T10:02:39.270Z,24.37
2019-05-20T10:07:45.603Z,26.47
2019-05-20T10:12:51.561Z,29.53
2019-05-20T10:17:57.475Z,26.57
2019-05-20T10:23:05.407Z,24.97
2019-05-20T10:28:10.960Z,24.73
2019-05-20T10:33:18.895Z,24.70
2019-05-20T10:38:24.485Z,23.60
2019-05-20T10:43:30.970Z,22.13
2019-05-20T10:48:37.490Z,22.23
2019-05-20T10:53:42.634Z,20.73
2019-05-20T10:58:49.507Z,22.63
2019-05-20T11:03:57.138Z,21.93
2019-05-20T11:09:13.602Z,22.03
2019-05-20T11:14:11.032Z,22.70
2019-05-20T11:19:18.546Z,22.77
2019-05-20T11:24:24.522Z,21.00
2019-05-20T11:29:30.322Z,19.13
2019-05-20T11:34:37.764Z,23.27
2019-05-20T11:39:44.489Z,22.80
2019-05-20T11:44:52.362Z,20.80
2019-05-20T11:49:57.787Z,30.43
2019-05-20T11:55:03.777Z,26.47
2019-05-20T12:00:11.972Z,22.20
2019-05-20T12:05:17.989Z,22.90
2019-05-20T12:10:24.287Z,24.63
2019-05-20T12:15:30.332Z,24.47
2019-05-20T12:20:38.220Z,26.53
2019-05-20T12:25:44.333Z,24.90
2019-05-20T12:30:51.596Z,24.83
2019-05-20T12:35:57.248Z,24.13
2019-05-20T12:41:03.131Z,24.03
2019-05-20T12:46:08.378Z,26.87
2019-05-20T12:51:14.863Z,24.77
2019-05-20T12:56:21.479Z,23.37
2019-05-20T13:01:27.524Z,24.87
2019-05-20T13:06:34.443Z,24.03
2019-05-20T13:11:40.832Z,22.27
2019-05-20T13:16:51.819Z,23.87
2019-05-20T13:22:00.245Z,27.00
2019-05-20T13:27:07.140Z,27.77
2019-05-20T13:32:12.332Z,26.90
2019-05-20T13:37:18.917Z,28.33
2019-05-20T13:42:25.258Z,26.33
2019-05-20T13:47:31.093Z,27.50
2019-05-20T13:52:36.686Z,26.87
2019-05-20T13:57:43.534Z,27.50
2019-05-20T14:02:49.213Z,30.37
2019-05-20T14:07:55.200Z,27.07
2019-05-20T14:13:00.398Z,31.80
2019-05-20T14:18:06.236Z,32.57
2019-05-20T14:23:12.202Z,27.90
2019-05-20T14:28:21.241Z,29.67
2019-05-20T14:33:26.787Z,32.00
2019-05-20T14:38:33.023Z,32.07
2019-05-20T14:43:40.399Z,31.30
2019-05-20T14:48:46.966Z,26.87
2019-05-20T14:53:54.549Z,29.90
2019-05-20T14:59:00.467Z,26.87
2019-05-20T15:04:15.942Z,27.70
2019-05-20T15:09:22.280Z,27.93
2019-05-20T15:14:29.117Z,27.77
2019-05-20T15:19:35.371Z,28.20
2019-05-20T15:24:45.051Z,25.30
2019-05-20T15:29:51.830Z,26.73
2019-05-20T15:35:00.652Z,26.17
2019-05-20T15:40:08.414Z,23.87
2019-05-20T15:45:14.661Z,23.80
2019-05-20T15:50:21.774Z,25.87
2019-05-20T15:55:29.034Z,23.03
2019-05-20T16:00:34.529Z,22.93
2019-05-20T16:05:41.279Z,20.97
2019-05-20T16:10:47.211Z,21.93
2019-05-20T16:15:53.886Z,24.60
2019-05-20T16:20:59.662Z,25.00
2019-05-20T16:26:05.364Z,23.30
2019-05-20T16:31:11.255Z,22.23
2019-05-20T16:36:18.300Z,23.03
2019-05-20T16:41:24.772Z,27.00
2019-05-20T16:46:30.639Z,22.83
2019-05-20T16:51:37.239Z,22.93
2019-05-20T16:56:43.568Z,22.77
2019-05-20T17:01:50.262Z,24.53
2019-05-20T17:06:56.474Z,27.13
2019-05-20T17:12:01.936Z,23.70
2019-05-20T17:17:08.477Z,26.40
2019-05-20T17:22:14.036Z,25.83
2019-05-20T17:27:19.820Z,24.83
2019-05-20T17:32:26.446Z,26.07
2019-05-20T17:37:32.887Z,24.83
2019-05-20T17:42:38.896Z,23.97
2019-05-20T17:47:44.979Z,23.93
2019-05-20T17:52:51.576Z,23.67
2019-05-20T17:57:57.741Z,23.23
2019-05-20T18:03:04.092Z,25.40
2019-05-20T18:08:10.402Z,24.00
2019-05-20T18:13:17.087Z,27.77
2019-05-20T18:18:23.592Z,24.00
2019-05-20T18:23:29.749Z,26.93
2019-05-20T18:28:36.131Z,27.10
2019-05-20T18:33:42.107Z,24.07
2019-05-20T18:38:49.836Z,25.50
2019-05-20T18:43:57.712Z,25.70
2019-05-20T18:49:04.299Z,22.43
2019-05-20T18:54:10.189Z,23.63
2019-05-20T18:59:17.133Z,25.20
2019-05-20T19:04:22.801Z,22.67
2019-05-20T19:09:28.134Z,24.63
2019-05-20T19:14:34.399Z,24.50
2019-05-20T19:19:41.297Z,23.23
2019-05-20T19:24:48.708Z,22.60
2019-05-20T19:29:55.726Z,22.23
2019-05-20T19:35:02.467Z,24.40
2019-05-20T19:40:10.174Z,24.97
2019-05-20T19:45:16.520Z,23.17
2019-05-20T19:50:22.030Z,21.77
2019-05-20T19:55:28.360Z,23.83
2019-05-20T20:00:34.578Z,24.03
2019-05-20T20:05:42.400Z,24.73
2019-05-20T20:10:48.935Z,26.90
2019-05-20T20:15:55.527Z,25.73
2019-05-20T20:21:01.980Z,27.17
2019-05-20T20:26:08.168Z,26.07
2019-05-20T20:31:14.499Z,29.40
2019-05-20T20:36:21.473Z,23.47
2019-05-20T20:41:28.077Z,25.10
2019-05-20T20:46:34.872Z,22.83
2019-05-20T20:51:40.933Z,22.67
2019-05-20T20:56:53.251Z,23.97
2019-05-20T21:02:00.155Z,23.73
2019-05-20T21:07:06.170Z,24.77
2019-05-20T21:12:12.152Z,23.37
2019-05-20T21:17:18.126Z,21.03
2019-05-20T21:22:24.016Z,23.00
2019-05-20T21:27:30.355Z,21.60
2019-05-20T21:32:37.263Z,22.63
2019-05-20T21:37:42.998Z,24.93
2019-05-20T21:42:49.622Z,22.40
2019-05-20T21:47:56.152Z,21.93
2019-05-20T21:53:02.052Z,24.07
2019-05-20T21:58:07.227Z,23.27
2019-05-20T22:03:24.027Z,24.70
2019-05-20T22:08:21.492Z,24.50
2019-05-20T22:13:28.498Z,25.13
2019-05-20T22:18:33.658Z,25.03
2019-05-20T22:23:48.794Z,24.33
2019-05-20T22:28:54.477Z,27.23
2019-05-20T22:34:00.322Z,28.40
2019-05-20T22:39:06.891Z,29.07
2019-05-20T22:44:13.195Z,24.00
2019-05-20T22:49:19.531Z,27.33
2019-05-20T22:54:25.519Z,26.93
2019-05-20T22:59:33.299Z,24.70
2019-05-20T23:04:40.171Z,25.37
2019-05-20T23:09:46.033Z,27.30
2019-05-20T23:14:51.242Z,28.57
2019-05-20T23:19:57.681Z,28.23
2019-05-20T23:25:03.283Z,27.43
2019-05-20T23:30:09.465Z,26.27
2019-05-20T23:35:15.466Z,24.27
2019-05-20T23:40:22.545Z,26.00
2019-05-20T23:45:27.865Z,23.77
2019-05-20T23:50:33.483Z,23.63
2019-05-20T23:55:38.971Z,21.80
